createdAt,value
2023-01-15T00:00:32.137Z,9.08
2023-01-15T00:01:32.237Z,9.09
2023-01-15T00:02:32.166Z,9.08
2023-01-15T00:03:32.138Z,9.06
2023-01-15T00:04:32.085Z,9.08
2023-01-15T00:05:32.071Z,9.08
2023-01-15T00:06:32.058Z,9.09
2023-01-15T00:07:32.047Z,9.08
2023-01-15T00:08:32.034Z,9.05
2023-01-15T00:09:32.038Z,9.06
2023-01-15T00:10:32.022Z,9.06
2023-01-15T00:11:31.994Z,9.08
2023-01-15T00:12:31.982Z,9.09
2023-01-15T00:13:31.971Z,9.06
2023-01-15T00:14:31.955Z,9.06
2023-01-15T00:15:31.950Z,9.06
2023-01-15T00:16:31.926Z,9.06
2023-01-15T00:17:31.916Z,9.06
2023-01-15T00:18:31.900Z,9.08
2023-01-15T00:19:31.888Z,9.08
2023-01-15T00:20:31.883Z,9.08
2023-01-15T00:21:31.912Z,9.05
2023-01-15T00:22:31.848Z,9.08
2023-01-15T00:23:31.836Z,9.08
2023-01-15T00:24:31.825Z,9.08
2023-01-15T00:25:31.814Z,9.09
2023-01-15T00:26:31.798Z,9.09
2023-01-15T00:27:31.786Z,9.08
2023-01-15T00:28:31.787Z,9.08
2023-01-15T00:29:31.760Z,9.08
2023-01-15T00:30:31.745Z,9.09
2023-01-15T00:31:31.797Z,9.08
2023-01-15T00:32:31.722Z,9.09
2023-01-15T00:33:31.705Z,9.08
2023-01-15T00:34:31.691Z,9.08
2023-01-15T00:35:31.683Z,9.09
2023-01-15T00:36:31.664Z,9.09
2023-01-15T00:37:31.655Z,9.08
2023-01-15T00:38:31.644Z,9.09
2023-01-15T00:39:31.629Z,9.09
2023-01-15T00:40:31.617Z,9.09
2023-01-15T00:41:31.606Z,9.11
2023-01-15T00:42:31.590Z,9.09
2023-01-15T00:43:31.572Z,9.09
2023-01-15T00:44:31.561Z,9.11
2023-01-15T00:45:31.551Z,9.09
2023-01-15T00:46:31.621Z,9.08
2023-01-15T00:47:31.521Z,9.09
2023-01-15T00:48:31.507Z,9.08
2023-01-15T00:49:31.496Z,9.09
2023-01-15T00:50:31.481Z,9.09
2023-01-15T00:51:31.467Z,9.08
2023-01-15T00:52:31.455Z,9.11
2023-01-15T00:53:31.445Z,9.09
2023-01-15T00:54:31.435Z,9.08
2023-01-15T00:55:31.415Z,9.08
2023-01-15T00:56:31.411Z,9.09
2023-01-15T00:57:31.393Z,9.09
2023-01-15T00:58:31.373Z,9.09
2023-01-15T00:59:31.365Z,9.08
2023-01-15T01:00:31.397Z,9.11
2023-01-15T01:01:31.473Z,9.09
2023-01-15T01:02:31.355Z,9.09
2023-01-15T01:03:31.318Z,9.11
2023-01-15T01:04:31.301Z,9.09
2023-01-15T01:05:31.284Z,9.09
2023-01-15T01:06:31.267Z,9.09
2023-01-15T01:07:31.269Z,9.08
2023-01-15T01:08:31.242Z,9.11
2023-01-15T01:09:31.247Z,9.11
2023-01-15T01:10:31.222Z,9.09
2023-01-15T01:11:31.204Z,9.11
2023-01-15T01:12:31.188Z,9.09
2023-01-15T01:13:31.179Z,9.09
2023-01-15T01:14:31.165Z,9.09
2023-01-15T01:15:31.151Z,9.09
2023-01-15T01:16:31.175Z,9.09
2023-01-15T01:17:31.125Z,9.09
2023-01-15T01:18:31.119Z,9.09
2023-01-15T01:19:31.099Z,9.09
2023-01-15T01:20:31.084Z,9.09
2023-01-15T01:21:31.100Z,9.12
2023-01-15T01:22:31.059Z,9.09
2023-01-15T01:23:31.051Z,9.12
2023-01-15T01:24:31.037Z,9.12
2023-01-15T01:25:31.018Z,9.11
2023-01-15T01:26:31.020Z,9.11
2023-01-15T01:27:31.003Z,9.12
2023-01-15T01:28:30.978Z,9.11
2023-01-15T01:29:30.968Z,9.11
2023-01-15T01:30:30.955Z,9.11
2023-01-15T01:31:31.107Z,9.11
2023-01-15T01:32:30.930Z,9.12
2023-01-15T01:33:30.920Z,9.11
2023-01-15T01:34:30.905Z,9.09
2023-01-15T01:35:30.893Z,9.09
2023-01-15T01:36:30.875Z,9.09
2023-01-15T01:37:30.867Z,9.09
2023-01-15T01:38:30.959Z,9.09
2023-01-15T01:39:30.837Z,9.11
2023-01-15T01:40:30.839Z,9.11
2023-01-15T01:41:30.810Z,9.11
2023-01-15T01:42:30.796Z,9.09
2023-01-15T01:43:30.781Z,9.09
2023-01-15T01:44:30.769Z,9.11
2023-01-15T01:45:30.810Z,9.11
2023-01-15T01:46:30.745Z,9.09
2023-01-15T01:47:30.732Z,9.11
2023-01-15T01:48:30.798Z,9.09
2023-01-15T01:49:30.702Z,9.09
2023-01-15T01:50:30.692Z,9.09
2023-01-15T01:51:30.676Z,9.11
2023-01-15T01:52:30.666Z,9.09
2023-01-15T01:53:30.779Z,9.11
2023-01-15T01:54:30.644Z,9.09
2023-01-15T01:55:30.642Z,9.09
2023-01-15T01:56:30.622Z,9.09
2023-01-15T01:57:30.595Z,9.09
2023-01-15T01:58:30.602Z,9.11
2023-01-15T01:59:30.573Z,9.09
2023-01-15T02:00:30.638Z,9.11
2023-01-15T02:01:30.662Z,9.11
2023-01-15T02:02:30.715Z,9.09
2023-01-15T02:03:30.580Z,9.11
2023-01-15T02:04:30.506Z,9.11
2023-01-15T02:05:30.491Z,9.11
2023-01-15T02:06:30.480Z,9.09
2023-01-15T02:07:30.464Z,9.09
2023-01-15T02:08:30.456Z,9.08
2023-01-15T02:09:30.440Z,9.09
2023-01-15T02:10:30.433Z,9.09
2023-01-15T02:11:30.413Z,9.08
2023-01-15T02:12:30.402Z,9.09
2023-01-15T02:13:30.387Z,9.08
2023-01-15T02:14:30.377Z,9.09
2023-01-15T02:15:30.360Z,9.09
2023-01-15T02:16:30.419Z,9.09
2023-01-15T02:17:30.336Z,9.09
2023-01-15T02:18:30.323Z,9.09
2023-01-15T02:19:30.323Z,9.08
2023-01-15T02:20:30.297Z,9.09
2023-01-15T02:21:30.279Z,9.08
2023-01-15T02:22:30.286Z,9.08
2023-01-15T02:23:30.255Z,9.09
2023-01-15T02:24:30.243Z,9.09
2023-01-15T02:25:30.235Z,9.08
2023-01-15T02:26:30.216Z,9.08
2023-01-15T02:27:30.206Z,9.08
2023-01-15T02:28:30.189Z,9.08
2023-01-15T02:29:30.176Z,9.09
2023-01-15T02:30:30.164Z,9.09
2023-01-15T02:31:30.240Z,9.08
2023-01-15T02:32:30.148Z,9.08
2023-01-15T02:33:30.121Z,9.06
2023-01-15T02:34:30.114Z,9.08
2023-01-15T02:35:30.097Z,9.09
2023-01-15T02:36:30.087Z,9.09
2023-01-15T02:37:30.081Z,9.08
2023-01-15T02:38:30.062Z,9.09
2023-01-15T02:39:30.046Z,9.08
2023-01-15T02:40:30.036Z,9.09
2023-01-15T02:41:30.017Z,9.08
2023-01-15T02:42:30.007Z,9.09
2023-01-15T02:43:29.990Z,9.09
2023-01-15T02:44:29.980Z,9.09
2023-01-15T02:45:30.048Z,9.08
2023-01-15T02:46:29.951Z,9.08
2023-01-15T02:47:29.941Z,9.08
2023-01-15T02:48:29.928Z,9.08
2023-01-15T02:49:29.920Z,9.09
2023-01-15T02:50:29.901Z,9.09
2023-01-15T02:51:29.884Z,9.11
2023-01-15T02:52:29.873Z,9.09
2023-01-15T02:53:29.860Z,9.09
2023-01-15T02:54:29.862Z,9.06
2023-01-15T02:55:29.835Z,9.06
2023-01-15T02:56:29.827Z,9.08
2023-01-15T02:57:29.806Z,9.09
2023-01-15T02:58:29.805Z,9.06
2023-01-15T02:59:29.780Z,9.08
2023-01-15T03:00:29.766Z,9.09
2023-01-15T03:01:29.831Z,9.08
2023-01-15T03:02:29.799Z,9.08
2023-01-15T03:03:29.727Z,9.08
2023-01-15T03:04:29.717Z,9.06
2023-01-15T03:05:29.700Z,9.08
2023-01-15T03:06:29.688Z,9.08
2023-01-15T03:07:29.674Z,9.06
2023-01-15T03:08:29.665Z,9.06
2023-01-15T03:09:29.650Z,9.08
2023-01-15T03:10:29.644Z,9.06
2023-01-15T03:11:29.620Z,9.05
2023-01-15T03:12:29.614Z,9.05
2023-01-15T03:13:29.606Z,9.05
2023-01-15T03:14:29.585Z,9.05
2023-01-15T03:15:29.569Z,9.06
2023-01-15T03:16:29.585Z,9.05
2023-01-15T03:17:29.543Z,9.05
2023-01-15T03:18:29.530Z,9.05
2023-01-15T03:19:29.520Z,9.05
2023-01-15T03:20:29.511Z,9.05
2023-01-15T03:21:29.499Z,9.05
2023-01-15T03:22:29.481Z,9.04
2023-01-15T03:23:29.464Z,9.04
2023-01-15T03:24:29.456Z,9.04
2023-01-15T03:25:29.453Z,9.05
2023-01-15T03:26:29.434Z,9.05
2023-01-15T03:27:29.422Z,9.04
2023-01-15T03:28:29.409Z,9.04
2023-01-15T03:29:29.387Z,9.04
2023-01-15T03:30:29.455Z,9.04
2023-01-15T03:31:29.359Z,9.04
2023-01-15T03:32:29.355Z,9.02
2023-01-15T03:33:29.333Z,9.04
2023-01-15T03:34:29.330Z,9.02
2023-01-15T03:35:29.307Z,9.02
2023-01-15T03:36:29.307Z,9.02
2023-01-15T03:37:29.288Z,9.04
2023-01-15T03:38:29.268Z,9.01
2023-01-15T03:39:29.258Z,9.04
2023-01-15T03:40:29.242Z,9.04
2023-01-15T03:41:29.231Z,9.02
2023-01-15T03:42:29.218Z,9.02
2023-01-15T03:43:29.203Z,9.04
2023-01-15T03:44:29.189Z,9.02
2023-01-15T03:45:29.174Z,9.01
2023-01-15T03:46:29.164Z,9.02
2023-01-15T03:47:29.148Z,9.02
2023-01-15T03:48:29.158Z,9.02
2023-01-15T03:49:29.127Z,9.01
2023-01-15T03:50:29.113Z,9.01
2023-01-15T03:51:29.099Z,9.01
2023-01-15T03:52:29.097Z,9.01
2023-01-15T03:53:29.071Z,9.01
2023-01-15T03:54:29.058Z,9.01
2023-01-15T03:55:29.046Z,9.01
2023-01-15T03:56:29.033Z,9.01
2023-01-15T03:57:29.018Z,8.99
2023-01-15T03:58:29.018Z,9.01
2023-01-15T03:59:28.992Z,8.99
2023-01-15T04:00:28.987Z,8.99
2023-01-15T04:01:29.130Z,8.99
2023-01-15T04:02:28.955Z,8.99
2023-01-15T04:03:28.938Z,8.99
2023-01-15T04:04:28.977Z,8.99
2023-01-15T04:05:28.912Z,8.99
2023-01-15T04:06:28.902Z,8.97
2023-01-15T04:07:28.887Z,9.01
2023-01-15T04:08:28.875Z,8.99
2023-01-15T04:09:28.858Z,8.97
2023-01-15T04:10:28.849Z,8.97
2023-01-15T04:11:28.847Z,8.97
2023-01-15T04:12:28.820Z,8.97
2023-01-15T04:13:31.233Z,8.99
2023-01-15T04:14:28.807Z,8.99
2023-01-15T04:15:28.813Z,8.97
2023-01-15T04:16:28.793Z,8.97
2023-01-15T04:17:28.757Z,8.97
2023-01-15T04:18:28.767Z,8.99
2023-01-15T04:19:28.731Z,8.97
2023-01-15T04:20:28.716Z,8.97
2023-01-15T04:21:28.702Z,8.99
2023-01-15T04:22:28.692Z,8.97
2023-01-15T04:23:28.681Z,8.97
2023-01-15T04:24:28.664Z,8.97
2023-01-15T04:25:28.665Z,8.97
2023-01-15T04:26:28.641Z,8.97
2023-01-15T04:27:28.630Z,8.96
2023-01-15T04:28:28.620Z,8.97
2023-01-15T04:29:28.597Z,8.97
2023-01-15T04:30:28.594Z,8.97
2023-01-15T04:31:28.574Z,8.97
2023-01-15T04:32:28.560Z,8.97
2023-01-15T04:33:28.549Z,8.97
2023-01-15T04:34:28.535Z,8.96
2023-01-15T04:35:28.521Z,8.97
2023-01-15T04:36:28.509Z,8.97
2023-01-15T04:37:28.493Z,8.97
2023-01-15T04:38:28.482Z,8.96
2023-01-15T04:39:28.472Z,8.99
2023-01-15T04:40:28.455Z,8.97
2023-01-15T04:41:28.445Z,8.97
2023-01-15T04:42:28.432Z,8.97
2023-01-15T04:43:28.414Z,8.97
2023-01-15T04:44:28.402Z,8.96
2023-01-15T04:45:28.390Z,8.99
2023-01-15T04:46:28.466Z,8.96
2023-01-15T04:47:28.359Z,8.96
2023-01-15T04:48:28.350Z,8.96
2023-01-15T04:49:28.338Z,8.96
2023-01-15T04:50:28.323Z,8.97
2023-01-15T04:51:28.309Z,8.97
2023-01-15T04:52:28.297Z,8.97
2023-01-15T04:53:28.286Z,8.97
2023-01-15T04:54:28.275Z,8.97
2023-01-15T04:55:28.263Z,8.97
2023-01-15T04:56:28.250Z,8.97
2023-01-15T04:57:28.229Z,8.97
2023-01-15T04:58:28.217Z,8.97
2023-01-15T04:59:28.206Z,8.96
2023-01-15T05:00:28.196Z,8.97
2023-01-15T05:01:28.320Z,8.96
2023-01-15T05:02:28.339Z,8.97
2023-01-15T05:03:28.151Z,8.97
2023-01-15T05:04:28.169Z,8.99
2023-01-15T05:05:28.143Z,8.99
2023-01-15T05:06:28.146Z,8.97
2023-01-15T05:07:28.148Z,8.99
2023-01-15T05:08:28.087Z,8.97
2023-01-15T05:09:28.090Z,8.97
2023-01-15T05:10:28.074Z,8.99
2023-01-15T05:11:28.064Z,9.01
2023-01-15T05:12:28.044Z,8.97
2023-01-15T05:13:28.019Z,8.99
2023-01-15T05:14:28.085Z,8.97
2023-01-15T05:15:27.994Z,8.97
2023-01-15T05:16:27.986Z,8.97
2023-01-15T05:17:27.983Z,8.99
2023-01-15T05:18:27.957Z,8.97
2023-01-15T05:19:27.944Z,8.97
2023-01-15T05:20:27.930Z,8.96
2023-01-15T05:21:27.922Z,8.99
2023-01-15T05:22:27.903Z,8.97
2023-01-15T05:23:27.890Z,8.97
2023-01-15T05:24:27.877Z,8.99
2023-01-15T05:25:27.882Z,8.99
2023-01-15T05:26:27.851Z,8.96
2023-01-15T05:27:27.840Z,8.96
2023-01-15T05:28:27.825Z,8.99
2023-01-15T05:29:27.816Z,8.97
2023-01-15T05:30:27.802Z,8.97
2023-01-15T05:31:27.806Z,8.99
2023-01-15T05:32:27.772Z,8.97
2023-01-15T05:33:27.768Z,8.97
2023-01-15T05:34:27.750Z,8.99
2023-01-15T05:35:27.733Z,8.97
2023-01-15T05:36:27.740Z,8.99
2023-01-15T05:37:27.706Z,8.99
2023-01-15T05:38:27.696Z,8.97
2023-01-15T05:39:27.680Z,8.99
2023-01-15T05:40:27.668Z,8.99
2023-01-15T05:41:27.662Z,8.97
2023-01-15T05:42:27.647Z,8.97
2023-01-15T05:43:27.629Z,8.97
2023-01-15T05:44:27.615Z,8.97
2023-01-15T05:45:27.602Z,8.99
2023-01-15T05:46:27.653Z,8.99
2023-01-15T05:47:27.579Z,8.99
2023-01-15T05:48:27.565Z,8.99
2023-01-15T05:49:27.571Z,8.99
2023-01-15T05:50:29.013Z,8.99
2023-01-15T05:51:27.525Z,8.99
2023-01-15T05:52:27.510Z,8.99
2023-01-15T05:53:27.504Z,9.01
2023-01-15T05:54:27.524Z,9.01
2023-01-15T05:55:27.473Z,8.99
2023-01-15T05:56:27.462Z,8.99
2023-01-15T05:57:27.447Z,8.99
2023-01-15T05:58:27.439Z,9.01
2023-01-15T05:59:27.418Z,9.01
2023-01-15T06:00:29.202Z,9.01
2023-01-15T06:01:27.421Z,9.01
2023-01-15T06:02:27.420Z,9.01
2023-01-15T06:03:27.398Z,9.02
2023-01-15T06:04:27.353Z,8.99
2023-01-15T06:05:27.339Z,8.99
2023-01-15T06:06:27.325Z,9.01
2023-01-15T06:07:27.313Z,8.99
2023-01-15T06:08:27.299Z,8.99
2023-01-15T06:09:27.287Z,9.02
2023-01-15T06:10:27.273Z,9.01
2023-01-15T06:11:27.266Z,8.99
2023-01-15T06:12:27.253Z,9.01
2023-01-15T06:13:27.244Z,8.99
2023-01-15T06:14:27.218Z,9.01
2023-01-15T06:15:27.208Z,8.99
2023-01-15T06:16:27.194Z,8.99
2023-01-15T06:17:27.183Z,8.97
2023-01-15T06:18:27.167Z,9.01
2023-01-15T06:19:27.158Z,9.01
2023-01-15T06:20:27.142Z,8.99
2023-01-15T06:21:27.128Z,9.01
2023-01-15T06:22:27.115Z,9.01
2023-01-15T06:23:27.102Z,8.99
2023-01-15T06:24:27.088Z,9.02
2023-01-15T06:25:27.078Z,9.01
2023-01-15T06:26:27.063Z,9.01
2023-01-15T06:27:27.050Z,9.01
2023-01-15T06:28:27.040Z,9.01
2023-01-15T06:29:27.026Z,8.99
2023-01-15T06:30:27.014Z,8.99
2023-01-15T06:31:27.212Z,8.99
2023-01-15T06:32:26.983Z,8.99
2023-01-15T06:33:26.979Z,8.99
2023-01-15T06:34:26.960Z,9.01
2023-01-15T06:35:26.946Z,8.99
2023-01-15T06:36:26.943Z,9.01
2023-01-15T06:37:26.920Z,8.99
2023-01-15T06:38:26.907Z,8.99
2023-01-15T06:39:26.896Z,8.99
2023-01-15T06:40:26.884Z,8.99
2023-01-15T06:41:26.876Z,8.97
2023-01-15T06:42:26.852Z,8.99
2023-01-15T06:43:26.844Z,8.99
2023-01-15T06:44:28.316Z,8.99
2023-01-15T06:45:26.815Z,8.97
2023-01-15T06:46:26.866Z,8.97
2023-01-15T06:47:26.789Z,8.97
2023-01-15T06:48:26.775Z,8.97
2023-01-15T06:49:26.777Z,8.99
2023-01-15T06:50:26.748Z,8.97
2023-01-15T06:51:26.740Z,8.99
2023-01-15T06:52:26.725Z,8.97
2023-01-15T06:53:26.711Z,8.97
2023-01-15T06:54:26.699Z,8.99
2023-01-15T06:55:26.684Z,8.99
2023-01-15T06:56:26.670Z,9.01
2023-01-15T06:57:26.670Z,8.99
2023-01-15T06:58:26.647Z,9.01
2023-01-15T06:59:26.634Z,8.99
2023-01-15T07:00:26.627Z,9.01
2023-01-15T07:01:26.664Z,8.99
2023-01-15T07:02:26.595Z,8.99
2023-01-15T07:03:26.581Z,8.97
2023-01-15T07:04:26.572Z,8.97
2023-01-15T07:05:26.554Z,8.99
2023-01-15T07:06:26.619Z,8.96
2023-01-15T07:07:26.528Z,8.99
2023-01-15T07:08:26.513Z,8.97
2023-01-15T07:09:26.504Z,8.96
2023-01-15T07:10:26.486Z,8.96
2023-01-15T07:11:26.475Z,8.96
2023-01-15T07:12:26.463Z,8.94
2023-01-15T07:13:26.450Z,8.97
2023-01-15T07:14:26.437Z,8.96
2023-01-15T07:15:26.424Z,8.96
2023-01-15T07:16:26.511Z,8.96
2023-01-15T07:17:26.398Z,8.97
2023-01-15T07:18:26.383Z,8.97
2023-01-15T07:19:26.374Z,8.96
2023-01-15T07:20:26.371Z,8.97
2023-01-15T07:21:26.349Z,8.97
2023-01-15T07:22:26.333Z,8.96
2023-01-15T07:23:26.321Z,8.97
2023-01-15T07:24:26.305Z,8.97
2023-01-15T07:25:26.293Z,8.96
2023-01-15T07:26:26.279Z,8.97
2023-01-15T07:27:26.266Z,8.96
2023-01-15T07:28:26.252Z,8.96
2023-01-15T07:29:26.240Z,8.96
2023-01-15T07:30:26.226Z,8.94
2023-01-15T07:31:26.252Z,8.94
2023-01-15T07:32:26.204Z,8.96
2023-01-15T07:33:26.188Z,8.97
2023-01-15T07:34:26.175Z,8.94
2023-01-15T07:35:26.166Z,8.97
2023-01-15T07:36:26.149Z,8.97
2023-01-15T07:37:28.510Z,8.96
2023-01-15T07:38:26.124Z,8.96
2023-01-15T07:39:26.127Z,8.97
2023-01-15T07:40:26.095Z,8.99
2023-01-15T07:41:26.088Z,8.97
2023-01-15T07:42:26.071Z,8.97
2023-01-15T07:43:26.058Z,8.97
2023-01-15T07:44:26.045Z,8.97
2023-01-15T07:45:26.120Z,8.97
2023-01-15T07:46:26.035Z,8.97
2023-01-15T07:47:26.008Z,8.99
2023-01-15T07:48:25.992Z,8.97
2023-01-15T07:49:25.980Z,8.99
2023-01-15T07:50:25.966Z,8.99
2023-01-15T07:51:25.957Z,8.97
2023-01-15T07:52:25.938Z,8.97
2023-01-15T07:53:25.935Z,8.96
2023-01-15T07:54:25.913Z,8.96
2023-01-15T07:55:25.909Z,8.97
2023-01-15T07:56:25.895Z,8.97
2023-01-15T07:57:25.876Z,8.99
2023-01-15T07:58:25.861Z,8.99
2023-01-15T07:59:25.853Z,8.96
2023-01-15T08:00:25.839Z,8.97
2023-01-15T08:01:25.925Z,8.97
2023-01-15T08:02:25.815Z,8.96
2023-01-15T08:03:25.808Z,8.96
2023-01-15T08:04:25.782Z,8.97
2023-01-15T08:05:25.772Z,8.96
2023-01-15T08:06:25.762Z,8.97
2023-01-15T08:07:25.745Z,8.96
2023-01-15T08:08:25.729Z,8.96
2023-01-15T08:09:25.724Z,8.96
2023-01-15T08:10:25.704Z,8.96
2023-01-15T08:11:25.695Z,8.97
2023-01-15T08:12:25.681Z,8.97
2023-01-15T08:13:25.667Z,8.97
2023-01-15T08:14:25.651Z,8.97
2023-01-15T08:15:25.647Z,8.96
2023-01-15T08:16:25.649Z,8.96
2023-01-15T08:17:25.616Z,8.97
2023-01-15T08:18:25.598Z,8.97
2023-01-15T08:19:25.594Z,8.96
2023-01-15T08:20:25.681Z,8.97
2023-01-15T08:21:25.567Z,8.96
2023-01-15T08:22:25.546Z,8.96
2023-01-15T08:23:25.543Z,8.97
2023-01-15T08:24:25.527Z,8.99
2023-01-15T08:25:25.509Z,8.97
2023-01-15T08:26:25.494Z,8.96
2023-01-15T08:27:25.488Z,8.96
2023-01-15T08:28:25.471Z,8.96
2023-01-15T08:29:25.458Z,8.97
2023-01-15T08:30:25.520Z,8.96
2023-01-15T08:31:25.599Z,8.97
2023-01-15T08:32:25.445Z,8.96
2023-01-15T08:33:25.407Z,8.97
2023-01-15T08:34:25.390Z,8.97
2023-01-15T08:35:25.379Z,8.99
2023-01-15T08:36:25.365Z,8.96
2023-01-15T08:37:25.555Z,8.97
2023-01-15T08:38:25.339Z,8.96
2023-01-15T08:39:25.327Z,8.97
2023-01-15T08:40:25.394Z,8.97
2023-01-15T08:41:25.306Z,8.96
2023-01-15T08:42:25.292Z,8.97
2023-01-15T08:43:25.281Z,8.97
2023-01-15T08:44:25.261Z,8.96
2023-01-15T08:45:25.276Z,8.97
2023-01-15T08:46:25.236Z,8.97
2023-01-15T08:47:25.222Z,8.97
2023-01-15T08:48:25.211Z,8.97
2023-01-15T08:49:25.198Z,8.97
2023-01-15T08:50:25.302Z,8.99
2023-01-15T08:51:25.226Z,8.97
2023-01-15T08:52:25.159Z,8.97
2023-01-15T08:53:25.144Z,8.99
2023-01-15T08:54:25.130Z,8.97
2023-01-15T08:55:25.116Z,8.97
2023-01-15T08:56:25.103Z,8.97
2023-01-15T08:57:25.092Z,8.97
2023-01-15T08:58:25.077Z,8.97
2023-01-15T08:59:25.066Z,8.97
2023-01-15T09:00:25.080Z,8.99
2023-01-15T09:01:25.107Z,8.96
2023-01-15T09:02:25.028Z,8.97
2023-01-15T09:03:25.017Z,8.97
2023-01-15T09:04:25.022Z,8.99
2023-01-15T09:05:24.985Z,8.97
2023-01-15T09:06:24.972Z,8.97
2023-01-15T09:07:25.003Z,8.94
2023-01-15T09:08:24.949Z,8.97
2023-01-15T09:09:24.932Z,8.94
2023-01-15T09:10:24.918Z,8.96
2023-01-15T09:11:24.906Z,8.96
2023-01-15T09:12:24.938Z,8.97
2023-01-15T09:13:24.880Z,8.96
2023-01-15T09:14:58.385Z,8.96
2023-01-15T09:15:25.895Z,8.97
2023-01-15T09:16:24.947Z,8.96
2023-01-15T09:17:24.827Z,8.97
2023-01-15T09:18:24.813Z,8.97
2023-01-15T09:19:24.802Z,8.96
2023-01-15T09:20:24.792Z,8.94
2023-01-15T09:21:24.778Z,8.96
2023-01-15T09:22:24.761Z,8.97
2023-01-15T09:23:24.749Z,8.94
2023-01-15T09:24:24.735Z,8.97
2023-01-15T09:25:24.738Z,8.96
2023-01-15T09:26:24.727Z,8.97
2023-01-15T09:27:24.706Z,8.97
2023-01-15T09:28:24.685Z,8.97
2023-01-15T09:29:24.670Z,8.99
2023-01-15T09:30:24.657Z,8.96
2023-01-15T09:31:24.649Z,8.97
2023-01-15T09:32:24.635Z,8.94
2023-01-15T09:33:24.622Z,8.96
2023-01-15T09:34:24.605Z,8.96
2023-01-15T09:35:24.596Z,8.96
2023-01-15T09:36:24.578Z,8.94
2023-01-15T09:37:24.579Z,8.94
2023-01-15T09:38:24.555Z,8.94
2023-01-15T09:39:24.542Z,8.94
2023-01-15T09:40:24.526Z,8.96
2023-01-15T09:41:24.516Z,8.94
2023-01-15T09:42:24.519Z,8.94
2023-01-15T09:43:24.490Z,8.94
2023-01-15T09:44:24.477Z,8.94
2023-01-15T09:45:24.477Z,8.96
2023-01-15T09:46:24.489Z,8.97
2023-01-15T09:47:24.436Z,8.97
2023-01-15T09:48:24.423Z,8.96
2023-01-15T09:49:24.413Z,8.96
2023-01-15T09:50:24.397Z,8.94
2023-01-15T09:51:24.384Z,8.94
2023-01-15T09:52:24.368Z,8.94
2023-01-15T09:53:24.358Z,8.94
2023-01-15T09:54:24.351Z,8.94
2023-01-15T09:55:24.338Z,8.94
2023-01-15T09:56:24.317Z,8.94
2023-01-15T09:57:24.309Z,8.94
2023-01-15T09:58:24.292Z,8.96
2023-01-15T09:59:24.279Z,8.94
2023-01-15T10:00:24.266Z,8.94
2023-01-15T10:01:24.292Z,8.94
2023-01-15T10:02:24.240Z,8.94
2023-01-15T10:03:24.278Z,8.94
2023-01-15T10:04:24.268Z,8.96
2023-01-15T10:05:24.201Z,8.96
2023-01-15T10:06:24.193Z,8.94
2023-01-15T10:07:24.175Z,8.94
2023-01-15T10:08:24.168Z,8.94
2023-01-15T10:09:24.151Z,8.96
2023-01-15T10:10:24.134Z,8.96
2023-01-15T10:11:24.124Z,8.96
2023-01-15T10:12:24.108Z,8.96
2023-01-15T10:13:24.098Z,8.96
2023-01-15T10:14:24.088Z,8.97
2023-01-15T10:15:24.069Z,8.97
2023-01-15T10:16:24.057Z,8.97
2023-01-15T10:17:24.043Z,8.97
2023-01-15T10:18:24.042Z,8.96
2023-01-15T10:19:24.015Z,8.96
2023-01-15T10:20:24.004Z,8.94
2023-01-15T10:21:23.990Z,8.97
2023-01-15T10:22:23.978Z,8.97
2023-01-15T10:23:23.966Z,8.96
2023-01-15T10:24:23.952Z,8.97
2023-01-15T10:25:23.944Z,8.96
2023-01-15T10:26:23.927Z,8.97
2023-01-15T10:27:23.927Z,8.96
2023-01-15T10:28:23.899Z,8.97
2023-01-15T10:29:23.885Z,8.96
2023-01-15T10:30:23.873Z,8.97
2023-01-15T10:31:23.917Z,8.97
2023-01-15T10:32:23.845Z,8.96
2023-01-15T10:33:23.833Z,8.97
2023-01-15T10:34:23.822Z,8.96
2023-01-15T10:35:23.826Z,8.97
2023-01-15T10:36:23.810Z,8.99
2023-01-15T10:37:23.779Z,8.96
2023-01-15T10:38:23.769Z,8.99
2023-01-15T10:39:23.753Z,8.97
2023-01-15T10:40:23.748Z,8.97
2023-01-15T10:41:23.743Z,8.96
2023-01-15T10:42:23.716Z,8.94
2023-01-15T10:43:23.702Z,8.96
2023-01-15T10:44:23.688Z,8.97
2023-01-15T10:45:23.682Z,8.96
2023-01-15T10:46:23.761Z,8.96
2023-01-15T10:47:23.648Z,8.97
2023-01-15T10:48:23.637Z,8.94
2023-01-15T10:49:23.625Z,8.96
2023-01-15T10:50:23.617Z,8.96
2023-01-15T10:51:23.605Z,8.96
2023-01-15T10:52:23.587Z,8.96
2023-01-15T10:53:23.571Z,8.97
2023-01-15T10:54:23.563Z,8.96
2023-01-15T10:55:23.544Z,8.96
2023-01-15T10:56:23.532Z,8.97
2023-01-15T10:57:23.518Z,8.96
2023-01-15T10:58:23.506Z,8.96
2023-01-15T10:59:23.495Z,8.97
2023-01-15T11:00:23.482Z,8.97
2023-01-15T11:01:23.731Z,8.97
2023-01-15T11:02:23.585Z,8.97
2023-01-15T11:03:23.439Z,8.97
2023-01-15T11:04:23.431Z,8.96
2023-01-15T11:05:23.413Z,8.97
2023-01-15T11:06:23.409Z,8.97
2023-01-15T11:07:23.386Z,8.97
2023-01-15T11:09:24.404Z,8.94
2023-01-15T11:10:23.350Z,8.97
2023-01-15T11:11:23.337Z,8.97
2023-01-15T11:12:23.328Z,8.96
2023-01-15T11:13:23.307Z,8.97
2023-01-15T11:14:23.296Z,8.97
2023-01-15T11:15:23.280Z,8.96
2023-01-15T11:16:23.270Z,8.97
2023-01-15T11:17:23.255Z,8.97
2023-01-15T11:18:23.243Z,8.97
2023-01-15T11:19:23.230Z,8.99
2023-01-15T11:20:23.216Z,8.97
2023-01-15T11:21:23.277Z,8.97
2023-01-15T11:22:23.200Z,8.97
2023-01-15T11:23:23.184Z,8.99
2023-01-15T11:24:23.166Z,8.99
2023-01-15T11:25:23.149Z,8.99
2023-01-15T11:26:23.137Z,8.99
2023-01-15T11:27:23.126Z,8.97
2023-01-15T11:28:23.115Z,8.97
2023-01-15T11:29:23.097Z,8.99
2023-01-15T11:30:23.086Z,8.99
2023-01-15T11:31:23.132Z,8.99
2023-01-15T11:32:23.059Z,8.99
2023-01-15T11:33:23.048Z,9.01
2023-01-15T11:34:23.035Z,8.99
2023-01-15T11:35:23.021Z,8.97
2023-01-15T11:36:23.006Z,8.97
2023-01-15T11:37:22.999Z,8.97
2023-01-15T11:38:22.984Z,9.01
2023-01-15T11:39:22.966Z,8.99
2023-01-15T11:40:22.953Z,8.97
2023-01-15T11:41:22.939Z,8.99
2023-01-15T11:42:22.932Z,8.99
2023-01-15T11:43:22.915Z,8.99
2023-01-15T11:44:22.904Z,9.01
2023-01-15T11:45:22.885Z,9.01
2023-01-15T11:46:22.942Z,9.01
2023-01-15T11:47:22.865Z,9.01
2023-01-15T11:48:22.851Z,8.99
2023-01-15T11:49:22.854Z,8.99
2023-01-15T11:50:22.824Z,8.99
2023-01-15T11:51:22.826Z,9.02
2023-01-15T11:52:22.807Z,9.01
2023-01-15T11:53:22.783Z,9.01
2023-01-15T11:54:22.772Z,9.01
2023-01-15T11:55:22.760Z,9.02
2023-01-15T11:56:22.745Z,9.02
2023-01-15T11:57:22.731Z,9.01
2023-01-15T11:58:22.716Z,9.01
2023-01-15T11:59:22.708Z,9.01
2023-01-15T12:00:22.693Z,8.99
2023-01-15T12:01:22.710Z,9.01
2023-01-15T12:02:22.670Z,9.02
2023-01-15T12:03:22.755Z,9.01
2023-01-15T12:04:22.822Z,9.01
2023-01-15T12:05:22.634Z,9.01
2023-01-15T12:06:22.617Z,8.99
2023-01-15T12:07:22.600Z,9.01
2023-01-15T12:08:22.593Z,9.01
2023-01-15T12:09:22.596Z,9.01
2023-01-15T12:10:22.563Z,8.99
2023-01-15T12:11:27.163Z,9.01
2023-01-15T12:12:22.538Z,9.02
2023-01-15T12:13:22.527Z,9.01
2023-01-15T12:14:22.516Z,9.02
2023-01-15T12:15:22.501Z,9.04
2023-01-15T12:16:22.569Z,9.02
2023-01-15T12:17:22.469Z,9.04
2023-01-15T12:18:22.482Z,9.04
2023-01-15T12:19:22.443Z,9.02
2023-01-15T12:20:22.432Z,9.01
2023-01-15T12:21:22.425Z,9.01
2023-01-15T12:22:22.430Z,9.01
2023-01-15T12:23:22.405Z,9.01
2023-01-15T12:24:22.383Z,9.02
2023-01-15T12:25:22.364Z,8.99
2023-01-15T12:26:22.365Z,9.02
2023-01-15T12:27:22.342Z,8.99
2023-01-15T12:28:22.327Z,9.01
2023-01-15T12:29:22.320Z,9.01
2023-01-15T12:30:22.302Z,9.01
2023-01-15T12:31:22.378Z,8.99
2023-01-15T12:32:22.277Z,9.01
2023-01-15T12:33:22.260Z,8.99
2023-01-15T12:34:22.250Z,8.99
2023-01-15T12:35:22.235Z,9.01
2023-01-15T12:36:22.266Z,9.02
2023-01-15T12:37:22.212Z,9.01
2023-01-15T12:38:22.201Z,9.01
2023-01-15T12:39:22.184Z,9.01
2023-01-15T12:40:22.172Z,9.02
2023-01-15T12:41:22.158Z,9.02
2023-01-15T12:42:22.150Z,9.01
2023-01-15T12:43:22.131Z,9.01
2023-01-15T12:44:22.120Z,9.01
2023-01-15T12:45:22.133Z,9.01
2023-01-15T12:46:22.241Z,9.01
2023-01-15T12:47:22.092Z,9.01
2023-01-15T12:48:22.073Z,9.01
2023-01-15T12:49:22.057Z,9.02
2023-01-15T12:50:22.044Z,9.02
2023-01-15T12:51:23.795Z,9.01
2023-01-15T12:52:22.015Z,9.02
2023-01-15T12:53:22.021Z,9.01
2023-01-15T12:54:21.989Z,9.02
2023-01-15T12:55:21.973Z,9.01
2023-01-15T12:56:21.971Z,9.01
2023-01-15T12:57:21.948Z,9.02
2023-01-15T12:58:21.939Z,9.02
2023-01-15T12:59:21.922Z,9.01
2023-01-15T13:00:21.909Z,9.01
2023-01-15T13:01:22.023Z,9.02
2023-01-15T13:02:21.927Z,9.02
2023-01-15T13:03:21.871Z,9.04
2023-01-15T13:04:21.858Z,9.02
2023-01-15T13:05:21.844Z,9.04
2023-01-15T13:06:21.831Z,9.02
2023-01-15T13:07:21.816Z,9.02
2023-01-15T13:08:21.806Z,9.04
2023-01-15T13:09:22.213Z,9.04
2023-01-15T13:10:21.783Z,9.02
2023-01-15T13:11:21.766Z,9.02
2023-01-15T13:12:21.752Z,9.01
2023-01-15T13:13:21.738Z,9.01
2023-01-15T13:14:21.723Z,8.99
2023-01-15T13:15:21.710Z,9.01
2023-01-15T13:16:21.799Z,9.01
2023-01-15T13:17:21.691Z,9.01
2023-01-15T13:18:21.673Z,9.02
2023-01-15T13:19:21.683Z,9.01